UAE4224 OPKC-OMDB
Flight info
| Callsign | UAE4224 |
|---|---|
| Flight time | 1h 38m |
| Altitude | 32000 |
| Route | MELOM A454 PASOV B540 KUPMA/N0456F240 B540 MIVEK P574 IMPED |
| Aircraft | B77W/H-SDE1E2E3FGHIJ2J3J4J5M1RWXY/LB1D1 |
Departure
| Time | 2026-05-09 18:07 |
|---|---|
| Airport | Jinnah International Airport (OPKC) |
Arrival
| Time | 2026-05-09 19:46 |
|---|---|
| Airport | Dubai International Airport (OMDB) |
| Time | Latitude | Longitude | Altitude | Speed | Heading |
|---|---|---|---|---|---|
| 2026-05-09 17:19 | 24.90164 | 67.15788 | 88 ft | 0 kts | 164° |
| 2026-05-09 17:47 | 24.90169 | 67.15787 | 88 ft | 2 kts | 164° |
| 2026-05-09 17:48 | 24.90184 | 67.15782 | 88 ft | 2 kts | 164° |
| 2026-05-09 17:48 | 24.90191 | 67.15780 | 88 ft | 0 kts | 164° |
| 2026-05-09 17:54 | 24.90202 | 67.15777 | 88 ft | 1 kts | 164° |
| 2026-05-09 17:55 | 24.90211 | 67.15774 | 88 ft | 2 kts | 157° |
| 2026-05-09 17:55 | 24.90224 | 67.15765 | 88 ft | 2 kts | 129° |
| 2026-05-09 17:55 | 24.90232 | 67.15750 | 88 ft | 2 kts | 107° |
| 2026-05-09 17:55 | 24.90234 | 67.15734 | 88 ft | 2 kts | 85° |
| 2026-05-09 17:56 | 24.90233 | 67.15724 | 88 ft | 1 kts | 73° |
| 2026-05-09 17:56 | 24.90232 | 67.15722 | 88 ft | 0 kts | 73° |
| 2026-05-09 18:01 | 24.90233 | 67.15726 | 88 ft | 2 kts | 73° |
| 2026-05-09 18:01 | 24.90244 | 67.15768 | 88 ft | 8 kts | 75° |
| 2026-05-09 18:01 | 24.90262 | 67.15839 | 88 ft | 13 kts | 75° |
| 2026-05-09 18:02 | 24.90290 | 67.15952 | 90 ft | 12 kts | 75° |
| 2026-05-09 18:02 | 24.90312 | 67.16040 | 91 ft | 11 kts | 74° |
| 2026-05-09 18:02 | 24.90333 | 67.16121 | 91 ft | 11 kts | 74° |
| 2026-05-09 18:02 | 24.90356 | 67.16213 | 91 ft | 14 kts | 75° |
| 2026-05-09 18:03 | 24.90385 | 67.16328 | 91 ft | 12 kts | 75° |
| 2026-05-09 18:03 | 24.90407 | 67.16419 | 93 ft | 13 kts | 74° |
| 2026-05-09 18:03 | 24.90438 | 67.16539 | 92 ft | 18 kts | 74° |
| 2026-05-09 18:03 | 24.90474 | 67.16682 | 92 ft | 20 kts | 75° |
| 2026-05-09 18:04 | 24.90512 | 67.16834 | 94 ft | 20 kts | 74° |
| 2026-05-09 18:04 | 24.90554 | 67.17002 | 94 ft | 24 kts | 73° |
| 2026-05-09 18:04 | 24.90597 | 67.17170 | 97 ft | 21 kts | 74° |
| 2026-05-09 18:04 | 24.90635 | 67.17319 | 100 ft | 18 kts | 74° |
| 2026-05-09 18:05 | 24.90696 | 67.17431 | 101 ft | 16 kts | 38° |
| 2026-05-09 18:05 | 24.90768 | 67.17479 | 102 ft | 10 kts | 28° |
| 2026-05-09 18:05 | 24.90828 | 67.17490 | 104 ft | 7 kts | 342° |
| 2026-05-09 18:05 | 24.90859 | 67.17451 | 104 ft | 6 kts | 277° |
| 2026-05-09 18:06 | 24.90853 | 67.17399 | 104 ft | 6 kts | 256° |
| 2026-05-09 18:06 | 24.90832 | 67.17309 | 103 ft | 23 kts | 255° |
| 2026-05-09 18:06 | 24.90717 | 67.16855 | 94 ft | 98 kts | 254° |
| 2026-05-09 18:06 | 24.90475 | 67.15899 | 94 ft | 160 kts | 254° |
| 2026-05-09 18:07 | 24.90154 | 67.14648 | 575 ft | 174 kts | 253° |
| 2026-05-09 18:07 | 24.89785 | 67.13353 | 1336 ft | 181 kts | 252° |
| 2026-05-09 18:07 | 24.89134 | 67.12141 | 1912 ft | 193 kts | 231° |
| 2026-05-09 18:07 | 24.88175 | 67.11041 | 2348 ft | 210 kts | 229° |
| 2026-05-09 18:08 | 24.87105 | 67.09838 | 2894 ft | 224 kts | 228° |
| 2026-05-09 18:08 | 24.85988 | 67.08587 | 3403 ft | 240 kts | 227° |
| 2026-05-09 18:08 | 24.84795 | 67.07252 | 3916 ft | 257 kts | 227° |
| 2026-05-09 18:08 | 24.83518 | 67.05826 | 4634 ft | 264 kts | 226° |
| 2026-05-09 18:09 | 24.82200 | 67.04356 | 5406 ft | 270 kts | 226° |
| 2026-05-09 18:09 | 24.80869 | 67.02872 | 6183 ft | 273 kts | 225° |
| 2026-05-09 18:09 | 24.79592 | 67.01449 | 6855 ft | 279 kts | 226° |
| 2026-05-09 18:09 | 24.78482 | 66.99648 | 7479 ft | 287 kts | 250° |
| 2026-05-09 18:10 | 24.78180 | 66.97455 | 8099 ft | 293 kts | 272° |
| 2026-05-09 18:10 | 24.78279 | 66.95973 | 8548 ft | 296 kts | 277° |
| 2026-05-09 18:10 | 24.78609 | 66.92954 | 9473 ft | 301 kts | 278° |
| 2026-05-09 18:10 | 24.78867 | 66.90639 | 10124 ft | 307 kts | 278° |
| 2026-05-09 18:11 | 24.79125 | 66.88257 | 10505 ft | 324 kts | 278° |
| 2026-05-09 18:11 | 24.79396 | 66.85722 | 10884 ft | 342 kts | 278° |
| 2026-05-09 18:11 | 24.79743 | 66.83081 | 11291 ft | 357 kts | 285° |
| 2026-05-09 18:11 | 24.80568 | 66.80476 | 11691 ft | 370 kts | 298° |
| 2026-05-09 18:12 | 24.81996 | 66.78031 | 12225 ft | 378 kts | 313° |
| 2026-05-09 18:12 | 24.83808 | 66.75975 | 13029 ft | 380 kts | 320° |
| 2026-05-09 18:12 | 24.85702 | 66.73979 | 13977 ft | 381 kts | 320° |
| 2026-05-09 18:12 | 24.87568 | 66.72018 | 14770 ft | 388 kts | 320° |
| 2026-05-09 18:13 | 24.89567 | 66.69916 | 15576 ft | 396 kts | 319° |
| 2026-05-09 18:13 | 24.91577 | 66.67798 | 16408 ft | 403 kts | 319° |
| 2026-05-09 18:13 | 24.93593 | 66.65672 | 17203 ft | 410 kts | 319° |
| 2026-05-09 18:13 | 24.95678 | 66.63471 | 18040 ft | 415 kts | 318° |
| 2026-05-09 18:14 | 24.97747 | 66.61285 | 18913 ft | 418 kts | 318° |
| 2026-05-09 18:14 | 24.99859 | 66.59052 | 19751 ft | 421 kts | 317° |
| 2026-05-09 18:14 | 25.01963 | 66.56827 | 20514 ft | 426 kts | 317° |
| 2026-05-09 18:14 | 25.03976 | 66.54410 | 21262 ft | 431 kts | 308° |
| 2026-05-09 18:15 | 25.05605 | 66.51638 | 22003 ft | 436 kts | 298° |
| 2026-05-09 18:15 | 25.06793 | 66.48566 | 22769 ft | 440 kts | 288° |
| 2026-05-09 18:15 | 25.07594 | 66.45303 | 23567 ft | 443 kts | 284° |
| 2026-05-09 18:15 | 25.08321 | 66.42011 | 24362 ft | 446 kts | 284° |
| 2026-05-09 18:16 | 25.09051 | 66.38687 | 25132 ft | 449 kts | 284° |
| 2026-05-09 18:16 | 25.09787 | 66.35344 | 25914 ft | 452 kts | 284° |
| 2026-05-09 18:16 | 25.10533 | 66.31955 | 26707 ft | 455 kts | 284° |
| 2026-05-09 18:16 | 25.11278 | 66.28570 | 27478 ft | 458 kts | 284° |
| 2026-05-09 18:17 | 25.12027 | 66.25169 | 28202 ft | 462 kts | 284° |
| 2026-05-09 18:17 | 25.12793 | 66.21687 | 28905 ft | 466 kts | 284° |
| 2026-05-09 18:17 | 25.13549 | 66.18249 | 29678 ft | 467 kts | 284° |
| 2026-05-09 18:17 | 25.14294 | 66.14855 | 30668 ft | 461 kts | 284° |
| 2026-05-09 18:18 | 25.15050 | 66.11410 | 31516 ft | 459 kts | 284° |
| 2026-05-09 18:18 | 25.15794 | 66.08014 | 31808 ft | 461 kts | 284° |
| 2026-05-09 18:18 | 25.16549 | 66.04568 | 31828 ft | 458 kts | 284° |
| 2026-05-09 18:19 | 25.18032 | 65.97783 | 31832 ft | 455 kts | 284° |
| 2026-05-09 18:19 | 25.20259 | 65.87566 | 31832 ft | 454 kts | 284° |
| 2026-05-09 18:20 | 25.21723 | 65.80831 | 31833 ft | 454 kts | 284° |
| 2026-05-09 18:20 | 25.23193 | 65.74055 | 31832 ft | 455 kts | 284° |
| 2026-05-09 18:21 | 25.24642 | 65.67355 | 31830 ft | 455 kts | 284° |
| 2026-05-09 18:21 | 25.26111 | 65.60553 | 31832 ft | 456 kts | 284° |
| 2026-05-09 18:22 | 25.27577 | 65.53743 | 31832 ft | 456 kts | 284° |
| 2026-05-09 18:22 | 25.29020 | 65.47029 | 31835 ft | 456 kts | 284° |
| 2026-05-09 18:23 | 25.30473 | 65.40250 | 31835 ft | 456 kts | 284° |
| 2026-05-09 18:23 | 25.31919 | 65.33486 | 31843 ft | 456 kts | 283° |
| 2026-05-09 18:24 | 25.33369 | 65.26683 | 31847 ft | 456 kts | 283° |
| 2026-05-09 18:25 | 25.35543 | 65.16454 | 31851 ft | 457 kts | 283° |
| 2026-05-09 18:25 | 25.36983 | 65.09654 | 31849 ft | 457 kts | 283° |
| 2026-05-09 18:26 | 25.38422 | 65.02849 | 31844 ft | 456 kts | 283° |
| 2026-05-09 18:26 | 25.39876 | 64.95954 | 31840 ft | 457 kts | 283° |
| 2026-05-09 18:27 | 25.41232 | 64.89140 | 31837 ft | 456 kts | 278° |
| 2026-05-09 18:27 | 25.41163 | 64.82278 | 31837 ft | 458 kts | 261° |
| 2026-05-09 18:28 | 25.39503 | 64.75492 | 31835 ft | 460 kts | 254° |
| 2026-05-09 18:28 | 25.37636 | 64.68729 | 31835 ft | 459 kts | 254° |
| 2026-05-09 18:29 | 25.35772 | 64.62008 | 31831 ft | 458 kts | 254° |
| 2026-05-09 18:29 | 25.33918 | 64.55344 | 31839 ft | 458 kts | 254° |
| 2026-05-09 18:30 | 25.32061 | 64.48684 | 31842 ft | 459 kts | 254° |
| 2026-05-09 18:30 | 25.30155 | 64.41861 | 31842 ft | 470 kts | 254° |
| 2026-05-09 18:30 | 25.29179 | 64.38373 | 31978 ft | 482 kts | 254° |
| 2026-05-09 18:31 | 25.28220 | 64.34948 | 32488 ft | 485 kts | 253° |
| 2026-05-09 18:31 | 25.27252 | 64.31499 | 33472 ft | 479 kts | 253° |
| 2026-05-09 18:31 | 25.26501 | 64.28827 | 34463 ft | 470 kts | 254° |
| 2026-05-09 18:31 | 25.25379 | 64.24836 | 35598 ft | 463 kts | 254° |
| 2026-05-09 18:32 | 25.24414 | 64.21406 | 35812 ft | 465 kts | 254° |
| 2026-05-09 18:32 | 25.22523 | 64.14695 | 35814 ft | 458 kts | 254° |
| 2026-05-09 18:33 | 25.20628 | 64.07978 | 35816 ft | 460 kts | 254° |
| 2026-05-09 18:33 | 25.18713 | 64.01206 | 35818 ft | 459 kts | 254° |
| 2026-05-09 18:34 | 25.17056 | 63.95359 | 35827 ft | 459 kts | 254° |
| 2026-05-09 18:34 | 25.15101 | 63.88468 | 35829 ft | 460 kts | 254° |
| 2026-05-09 18:35 | 25.13206 | 63.81807 | 35829 ft | 459 kts | 254° |
| 2026-05-09 18:35 | 25.11288 | 63.75076 | 35829 ft | 458 kts | 254° |
| 2026-05-09 18:36 | 25.09381 | 63.68394 | 35827 ft | 459 kts | 254° |
| 2026-05-09 18:36 | 25.07459 | 63.61674 | 35827 ft | 457 kts | 254° |
| 2026-05-09 18:37 | 25.05527 | 63.54931 | 35827 ft | 458 kts | 254° |
| 2026-05-09 18:37 | 25.03654 | 63.48404 | 35825 ft | 457 kts | 254° |
| 2026-05-09 18:38 | 25.01747 | 63.41773 | 35823 ft | 457 kts | 254° |
| 2026-05-09 18:38 | 24.99822 | 63.35090 | 35827 ft | 458 kts | 254° |
| 2026-05-09 18:40 | 24.92148 | 63.08581 | 35820 ft | 457 kts | 253° |
| 2026-05-09 18:41 | 24.90247 | 63.02045 | 35811 ft | 457 kts | 253° |
| 2026-05-09 18:41 | 24.88328 | 62.95457 | 35805 ft | 456 kts | 253° |
| 2026-05-09 18:42 | 24.86389 | 62.88812 | 35808 ft | 457 kts | 253° |
| 2026-05-09 18:42 | 24.84482 | 62.82289 | 35806 ft | 456 kts | 253° |
| 2026-05-09 18:43 | 24.82523 | 62.75600 | 35804 ft | 458 kts | 253° |
| 2026-05-09 18:43 | 24.80582 | 62.68987 | 35804 ft | 456 kts | 253° |
| 2026-05-09 18:44 | 24.78630 | 62.62347 | 35806 ft | 458 kts | 253° |
| 2026-05-09 18:44 | 24.76658 | 62.55650 | 35804 ft | 456 kts | 253° |
| 2026-05-09 18:45 | 24.74698 | 62.49007 | 35804 ft | 457 kts | 253° |
| 2026-05-09 18:45 | 24.72744 | 62.42399 | 35804 ft | 456 kts | 253° |
| 2026-05-09 18:46 | 24.70792 | 62.35804 | 35803 ft | 456 kts | 253° |
| 2026-05-09 18:46 | 24.68843 | 62.29234 | 35810 ft | 457 kts | 252° |
| 2026-05-09 18:47 | 24.66875 | 62.22612 | 35809 ft | 455 kts | 252° |
| 2026-05-09 18:47 | 24.64903 | 62.15989 | 35810 ft | 456 kts | 252° |
| 2026-05-09 18:48 | 24.62933 | 62.09382 | 35808 ft | 457 kts | 252° |
| 2026-05-09 18:48 | 24.60947 | 62.02735 | 35812 ft | 457 kts | 252° |
| 2026-05-09 18:49 | 24.59004 | 61.96242 | 35817 ft | 457 kts | 252° |
| 2026-05-09 18:49 | 24.57007 | 61.89583 | 35816 ft | 456 kts | 252° |
| 2026-05-09 18:50 | 24.55031 | 61.83004 | 35815 ft | 457 kts | 252° |
| 2026-05-09 18:50 | 24.53276 | 61.77171 | 35810 ft | 456 kts | 252° |
| 2026-05-09 18:51 | 24.51160 | 61.70150 | 35804 ft | 456 kts | 252° |
| 2026-05-09 18:51 | 24.49204 | 61.63670 | 35798 ft | 457 kts | 252° |
| 2026-05-09 18:52 | 24.47248 | 61.57205 | 35793 ft | 456 kts | 252° |
| 2026-05-09 18:52 | 24.45247 | 61.50597 | 35787 ft | 457 kts | 252° |
| 2026-05-09 18:53 | 24.43248 | 61.44011 | 35785 ft | 457 kts | 252° |
| 2026-05-09 18:53 | 24.41252 | 61.37445 | 35787 ft | 457 kts | 252° |
| 2026-05-09 18:54 | 24.39326 | 61.30883 | 35788 ft | 456 kts | 256° |
| 2026-05-09 18:54 | 24.37969 | 61.24077 | 35791 ft | 456 kts | 258° |
| 2026-05-09 18:55 | 24.36603 | 61.17251 | 35788 ft | 457 kts | 258° |
| 2026-05-09 18:55 | 24.35232 | 61.10542 | 35786 ft | 456 kts | 257° |
| 2026-05-09 18:56 | 24.33856 | 61.03884 | 35790 ft | 457 kts | 257° |
| 2026-05-09 18:56 | 24.32450 | 60.97134 | 35786 ft | 457 kts | 257° |
| 2026-05-09 18:57 | 24.31041 | 60.90404 | 35787 ft | 456 kts | 257° |
| 2026-05-09 18:57 | 24.29626 | 60.83668 | 35790 ft | 456 kts | 257° |
| 2026-05-09 18:58 | 24.28221 | 60.76998 | 35791 ft | 456 kts | 257° |
| 2026-05-09 18:58 | 24.26796 | 60.70251 | 35794 ft | 455 kts | 257° |
| 2026-05-09 18:59 | 24.25377 | 60.63548 | 35798 ft | 456 kts | 257° |
| 2026-05-09 18:59 | 24.23953 | 60.56842 | 35803 ft | 456 kts | 257° |
| 2026-05-09 19:00 | 24.22516 | 60.50092 | 35803 ft | 456 kts | 257° |
| 2026-05-09 19:00 | 24.20381 | 60.40085 | 35804 ft | 456 kts | 257° |
| 2026-05-09 19:01 | 24.19012 | 60.33687 | 35806 ft | 455 kts | 257° |
| 2026-05-09 19:01 | 24.17567 | 60.26949 | 35803 ft | 456 kts | 257° |
| 2026-05-09 19:02 | 24.16123 | 60.20233 | 35795 ft | 454 kts | 257° |
| 2026-05-09 19:02 | 24.14675 | 60.13511 | 35790 ft | 455 kts | 257° |
| 2026-05-09 19:03 | 24.13233 | 60.06835 | 35787 ft | 455 kts | 257° |
| 2026-05-09 19:03 | 24.11805 | 60.00238 | 35786 ft | 455 kts | 257° |
| 2026-05-09 19:04 | 24.10347 | 59.93512 | 35786 ft | 453 kts | 256° |
| 2026-05-09 19:04 | 24.08967 | 59.87167 | 35785 ft | 454 kts | 256° |
| 2026-05-09 19:05 | 24.07485 | 59.80365 | 35786 ft | 455 kts | 256° |
| 2026-05-09 19:05 | 24.06012 | 59.73616 | 35784 ft | 454 kts | 256° |
| 2026-05-09 19:06 | 24.04593 | 59.67131 | 35788 ft | 455 kts | 256° |
| 2026-05-09 19:06 | 24.03130 | 59.60461 | 35782 ft | 453 kts | 256° |
| 2026-05-09 19:07 | 24.01669 | 59.53816 | 35785 ft | 456 kts | 256° |
| 2026-05-09 19:07 | 24.00228 | 59.47271 | 35787 ft | 454 kts | 256° |
| 2026-05-09 19:08 | 23.98760 | 59.40620 | 35792 ft | 454 kts | 256° |
| 2026-05-09 19:08 | 23.97276 | 59.33915 | 35800 ft | 455 kts | 256° |
| 2026-05-09 19:09 | 23.95802 | 59.27262 | 35797 ft | 454 kts | 256° |
| 2026-05-09 19:09 | 23.94345 | 59.20704 | 35807 ft | 455 kts | 256° |
| 2026-05-09 19:10 | 23.93662 | 59.13821 | 35801 ft | 456 kts | 271° |
| 2026-05-09 19:10 | 23.94812 | 59.07054 | 35800 ft | 459 kts | 287° |
| 2026-05-09 19:11 | 23.96893 | 59.00652 | 35804 ft | 459 kts | 288° |
| 2026-05-09 19:11 | 23.98935 | 58.94381 | 35804 ft | 460 kts | 287° |
| 2026-05-09 19:12 | 24.01065 | 58.87781 | 35803 ft | 459 kts | 287° |
| 2026-05-09 19:12 | 24.03129 | 58.81349 | 35806 ft | 460 kts | 287° |
| 2026-05-09 19:13 | 24.05187 | 58.74915 | 35803 ft | 460 kts | 287° |
| 2026-05-09 19:13 | 24.07237 | 58.68486 | 35808 ft | 460 kts | 287° |
| 2026-05-09 19:14 | 24.09334 | 58.61897 | 35796 ft | 460 kts | 287° |
| 2026-05-09 19:14 | 24.11444 | 58.55252 | 35800 ft | 461 kts | 287° |
| 2026-05-09 19:15 | 24.13469 | 58.48866 | 35794 ft | 459 kts | 287° |
| 2026-05-09 19:15 | 24.15560 | 58.42257 | 35793 ft | 460 kts | 287° |
| 2026-05-09 19:16 | 24.17565 | 58.35910 | 35789 ft | 459 kts | 287° |
| 2026-05-09 19:16 | 24.19615 | 58.29409 | 35794 ft | 459 kts | 287° |
| 2026-05-09 19:17 | 24.21691 | 58.22816 | 35799 ft | 459 kts | 287° |
| 2026-05-09 19:17 | 24.23754 | 58.16255 | 35797 ft | 458 kts | 287° |
| 2026-05-09 19:18 | 24.25826 | 58.09650 | 35789 ft | 460 kts | 287° |
| 2026-05-09 19:18 | 24.27893 | 58.03053 | 35787 ft | 458 kts | 286° |
| 2026-05-09 19:19 | 24.29969 | 57.96415 | 35785 ft | 459 kts | 286° |
| 2026-05-09 19:19 | 24.32027 | 57.89820 | 35785 ft | 458 kts | 287° |
| 2026-05-09 19:20 | 24.34088 | 57.83209 | 35787 ft | 459 kts | 287° |
| 2026-05-09 19:20 | 24.36144 | 57.76599 | 35789 ft | 458 kts | 287° |
| 2026-05-09 19:21 | 24.38184 | 57.70032 | 35787 ft | 458 kts | 286° |
| 2026-05-09 19:21 | 24.40233 | 57.63421 | 35787 ft | 458 kts | 286° |
| 2026-05-09 19:22 | 24.42286 | 57.56790 | 35790 ft | 458 kts | 287° |
| 2026-05-09 19:22 | 24.44320 | 57.50207 | 35795 ft | 458 kts | 286° |
| 2026-05-09 19:23 | 24.46336 | 57.43671 | 35793 ft | 457 kts | 286° |
| 2026-05-09 19:23 | 24.48370 | 57.37065 | 35774 ft | 456 kts | 286° |
| 2026-05-09 19:24 | 24.49363 | 57.33838 | 35247 ft | 452 kts | 286° |
| 2026-05-09 19:24 | 24.50293 | 57.30810 | 34436 ft | 454 kts | 286° |
| 2026-05-09 19:24 | 24.51342 | 57.27393 | 33542 ft | 455 kts | 286° |
| 2026-05-09 19:24 | 24.52347 | 57.24115 | 32718 ft | 455 kts | 286° |
| 2026-05-09 19:25 | 24.53356 | 57.20822 | 31909 ft | 457 kts | 286° |
| 2026-05-09 19:25 | 24.54368 | 57.17518 | 31057 ft | 463 kts | 286° |
| 2026-05-09 19:25 | 24.55416 | 57.14086 | 30291 ft | 477 kts | 286° |
| 2026-05-09 19:25 | 24.56475 | 57.10624 | 29801 ft | 474 kts | 286° |
| 2026-05-09 19:26 | 24.57514 | 57.07222 | 29284 ft | 471 kts | 286° |
| 2026-05-09 19:26 | 24.58556 | 57.03809 | 28722 ft | 469 kts | 286° |
| 2026-05-09 19:26 | 24.59590 | 57.00420 | 28172 ft | 466 kts | 286° |
| 2026-05-09 19:26 | 24.60608 | 56.97076 | 27606 ft | 462 kts | 286° |
| 2026-05-09 19:27 | 24.61632 | 56.93712 | 27031 ft | 459 kts | 286° |
| 2026-05-09 19:27 | 24.62631 | 56.90428 | 26462 ft | 455 kts | 286° |
| 2026-05-09 19:27 | 24.63626 | 56.87153 | 25885 ft | 451 kts | 286° |
| 2026-05-09 19:27 | 24.64788 | 56.83960 | 25311 ft | 450 kts | 294° |
| 2026-05-09 19:28 | 24.66350 | 56.80941 | 24726 ft | 447 kts | 298° |
| 2026-05-09 19:28 | 24.67939 | 56.78064 | 24156 ft | 444 kts | 299° |
| 2026-05-09 19:28 | 24.69548 | 56.75156 | 23576 ft | 440 kts | 299° |
| 2026-05-09 19:28 | 24.71156 | 56.72248 | 22979 ft | 437 kts | 299° |
| 2026-05-09 19:29 | 24.72677 | 56.69494 | 22420 ft | 434 kts | 299° |
| 2026-05-09 19:29 | 24.74242 | 56.66656 | 21852 ft | 430 kts | 299° |
| 2026-05-09 19:29 | 24.75792 | 56.63845 | 21273 ft | 427 kts | 299° |
| 2026-05-09 19:29 | 24.77331 | 56.61050 | 20685 ft | 424 kts | 299° |
| 2026-05-09 19:30 | 24.78847 | 56.58296 | 20107 ft | 421 kts | 300° |
| 2026-05-09 19:30 | 24.80382 | 56.55505 | 19524 ft | 418 kts | 300° |
| 2026-05-09 19:30 | 24.81895 | 56.52753 | 18939 ft | 415 kts | 300° |
| 2026-05-09 19:30 | 24.83370 | 56.50068 | 18370 ft | 412 kts | 300° |
| 2026-05-09 19:31 | 24.84871 | 56.47333 | 17786 ft | 410 kts | 300° |
| 2026-05-09 19:31 | 24.86349 | 56.44640 | 17191 ft | 407 kts | 300° |
| 2026-05-09 19:31 | 24.87662 | 56.41899 | 16642 ft | 402 kts | 291° |
| 2026-05-09 19:31 | 24.88482 | 56.38998 | 16075 ft | 397 kts | 280° |
| 2026-05-09 19:32 | 24.88793 | 56.35938 | 15487 ft | 392 kts | 269° |
| 2026-05-09 19:32 | 24.88618 | 56.32990 | 14983 ft | 386 kts | 262° |
| 2026-05-09 19:32 | 24.88337 | 56.30106 | 14478 ft | 383 kts | 263° |
| 2026-05-09 19:32 | 24.88276 | 56.27155 | 13936 ft | 381 kts | 272° |
| 2026-05-09 19:33 | 24.88753 | 56.24276 | 13388 ft | 381 kts | 284° |
| 2026-05-09 19:33 | 24.89645 | 56.21558 | 13041 ft | 374 kts | 288° |
| 2026-05-09 19:33 | 24.90598 | 56.18882 | 12566 ft | 370 kts | 289° |
| 2026-05-09 19:33 | 24.91504 | 56.16342 | 12021 ft | 369 kts | 289° |
| 2026-05-09 19:34 | 24.92454 | 56.13678 | 11444 ft | 368 kts | 289° |
| 2026-05-09 19:34 | 24.93381 | 56.11075 | 10913 ft | 366 kts | 289° |
| 2026-05-09 19:34 | 24.94314 | 56.08460 | 10745 ft | 353 kts | 289° |
| 2026-05-09 19:34 | 24.95196 | 56.05987 | 10641 ft | 339 kts | 289° |
| 2026-05-09 19:35 | 24.96049 | 56.03593 | 10501 ft | 327 kts | 288° |
| 2026-05-09 19:35 | 24.96865 | 56.01304 | 10345 ft | 316 kts | 288° |
| 2026-05-09 19:35 | 24.97651 | 55.99093 | 10190 ft | 306 kts | 288° |
| 2026-05-09 19:35 | 24.98418 | 55.96939 | 10041 ft | 297 kts | 288° |
| 2026-05-09 19:36 | 24.99171 | 55.94816 | 9676 ft | 295 kts | 288° |
| 2026-05-09 19:36 | 24.99918 | 55.92714 | 9373 ft | 290 kts | 287° |
| 2026-05-09 19:36 | 25.00654 | 55.90633 | 8896 ft | 290 kts | 288° |
| 2026-05-09 19:36 | 25.01388 | 55.88560 | 8604 ft | 282 kts | 288° |
| 2026-05-09 19:37 | 25.02095 | 55.86564 | 8174 ft | 280 kts | 289° |
| 2026-05-09 19:37 | 25.02792 | 55.84592 | 7758 ft | 277 kts | 289° |
| 2026-05-09 19:37 | 25.03484 | 55.82634 | 7374 ft | 269 kts | 290° |
| 2026-05-09 19:37 | 25.04163 | 55.80714 | 7026 ft | 260 kts | 290° |
| 2026-05-09 19:38 | 25.04818 | 55.78859 | 6731 ft | 260 kts | 290° |
| 2026-05-09 19:38 | 25.05478 | 55.76987 | 6372 ft | 261 kts | 291° |
| 2026-05-09 19:38 | 25.06138 | 55.75113 | 6033 ft | 261 kts | 292° |
| 2026-05-09 19:38 | 25.06801 | 55.73234 | 5694 ft | 261 kts | 292° |
| 2026-05-09 19:39 | 25.07453 | 55.71383 | 5426 ft | 257 kts | 292° |
| 2026-05-09 19:39 | 25.08073 | 55.69623 | 5339 ft | 247 kts | 292° |
| 2026-05-09 19:39 | 25.08691 | 55.67865 | 5245 ft | 239 kts | 292° |
| 2026-05-09 19:39 | 25.09286 | 55.66175 | 5133 ft | 235 kts | 292° |
| 2026-05-09 19:40 | 25.09916 | 55.64468 | 4933 ft | 238 kts | 295° |
| 2026-05-09 19:40 | 25.10617 | 55.62899 | 4665 ft | 236 kts | 298° |
| 2026-05-09 19:40 | 25.11419 | 55.61297 | 4355 ft | 234 kts | 300° |
| 2026-05-09 19:40 | 25.12219 | 55.59788 | 4051 ft | 225 kts | 301° |
| 2026-05-09 19:41 | 25.13016 | 55.58336 | 3789 ft | 215 kts | 301° |
| 2026-05-09 19:41 | 25.13788 | 55.56965 | 3542 ft | 202 kts | 302° |
| 2026-05-09 19:41 | 25.14542 | 55.55639 | 3301 ft | 205 kts | 302° |
| 2026-05-09 19:41 | 25.15294 | 55.54311 | 3045 ft | 203 kts | 302° |
| 2026-05-09 19:42 | 25.16023 | 55.53019 | 2794 ft | 202 kts | 302° |
| 2026-05-09 19:42 | 25.16763 | 55.51700 | 2533 ft | 194 kts | 301° |
| 2026-05-09 19:42 | 25.17450 | 55.50474 | 2291 ft | 177 kts | 301° |
| 2026-05-09 19:42 | 25.18072 | 55.49364 | 2069 ft | 165 kts | 301° |
| 2026-05-09 19:43 | 25.18660 | 55.48310 | 1860 ft | 157 kts | 300° |
| 2026-05-09 19:43 | 25.19229 | 55.47290 | 1662 ft | 152 kts | 300° |
| 2026-05-09 19:43 | 25.19780 | 55.46301 | 1469 ft | 152 kts | 301° |
| 2026-05-09 19:43 | 25.20349 | 55.45280 | 1264 ft | 151 kts | 300° |
| 2026-05-09 19:44 | 25.20880 | 55.44330 | 1076 ft | 140 kts | 300° |
| 2026-05-09 19:44 | 25.21387 | 55.43432 | 867 ft | 137 kts | 301° |
| 2026-05-09 19:44 | 25.21895 | 55.42540 | 732 ft | 140 kts | 301° |
| 2026-05-09 19:44 | 25.22402 | 55.41620 | 549 ft | 139 kts | 300° |
| 2026-05-09 19:45 | 25.22921 | 55.40700 | 361 ft | 143 kts | 300° |
| 2026-05-09 19:45 | 25.23441 | 55.39763 | 158 ft | 146 kts | 301° |
| 2026-05-09 19:45 | 25.23948 | 55.38849 | 64 ft | 119 kts | 298° |
| 2026-05-09 19:45 | 25.24297 | 55.38219 | 46 ft | 79 kts | 301° |
| 2026-05-09 19:46 | 25.24543 | 55.37765 | 37 ft | 49 kts | 303° |
| 2026-05-09 19:46 | 25.24613 | 55.37508 | 35 ft | 25 kts | 276° |
| 2026-05-09 19:46 | 25.24620 | 55.37359 | 34 ft | 10 kts | 272° |
| 2026-05-09 19:46 | 25.24627 | 55.37276 | 34 ft | 10 kts | 280° |
| 2026-05-09 19:47 | 25.24658 | 55.37201 | 33 ft | 11 kts | 302° |
| 2026-05-09 19:47 | 25.24700 | 55.37126 | 33 ft | 11 kts | 301° |
| 2026-05-09 19:47 | 25.24741 | 55.37052 | 32 ft | 11 kts | 302° |
| 2026-05-09 19:47 | 25.24783 | 55.36979 | 33 ft | 10 kts | 303° |
| 2026-05-09 19:48 | 25.24839 | 55.36863 | 31 ft | 20 kts | 291° |
| 2026-05-09 19:48 | 25.24884 | 55.36722 | 30 ft | 16 kts | 281° |
| 2026-05-09 19:48 | 25.24927 | 55.36598 | 30 ft | 19 kts | 302° |
| 2026-05-09 19:48 | 25.24977 | 55.36466 | 28 ft | 18 kts | 272° |
| 2026-05-09 19:49 | 25.24985 | 55.36331 | 29 ft | 16 kts | 282° |
| 2026-05-09 19:49 | 25.25036 | 55.36220 | 28 ft | 16 kts | 303° |
| 2026-05-09 19:49 | 25.25072 | 55.36156 | 28 ft | 9 kts | 302° |
| 2026-05-09 19:49 | 25.25086 | 55.36124 | 28 ft | 2 kts | 276° |
| 2026-05-09 19:50 | 25.25079 | 55.36107 | 28 ft | 2 kts | 229° |
| 2026-05-09 19:50 | 25.25062 | 55.36093 | 28 ft | 3 kts | 216° |
| 2026-05-09 19:50 | 25.25051 | 55.36084 | 28 ft | 1 kts | 214° |
| 2026-05-09 19:50 | 25.25035 | 55.36073 | 29 ft | 4 kts | 213° |
| 2026-05-09 19:51 | 25.25022 | 55.36064 | 28 ft | 0 kts | 212° |
| 2026-05-09 19:51 | 25.25017 | 55.36061 | 28 ft | 0 kts | 212° |